Time;durP1;ratioP1;P1;durP2;ratioP2;P2;SDS_P1;SDS_P2;PMS_P1;PMS_P2;Temp;Humidity;BMP_temperature;BMP_pressure;BME280_temperature;BME280_humidity;BME280_pressure;Samples;Min_cycle;Max_cycle;Signal;HPM_P1;HPM_P2
2022/03/13 00:02:08;;;;;;;10.43;6.95;;;;;;;14.82;34.06;97505.38;5051411;28;20040;-27
2022/03/13 00:04:36;;;;;;;10.35;6.70;;;;;;;14.89;33.94;97515.34;5040103;28;20128;-27
2022/03/13 00:07:04;;;;;;;10.52;7.05;;;;;;;14.83;33.90;97511.59;5036877;28;20025;-28
2022/03/13 00:09:30;;;;;;;11.43;6.68;;;;;;;14.90;33.57;97512.19;5036558;28;20033;-27
2022/03/13 00:11:55;;;;;;;10.02;6.95;;;;;;;14.91;33.50;97508.25;5036673;28;20025;-26
2022/03/13 00:14:24;;;;;;;8.70;6.82;;;;;;;14.89;33.76;97507.91;5036680;28;20057;-27
2022/03/13 00:16:50;;;;;;;10.00;6.32;;;;;;;14.82;33.75;97519.03;5037922;28;20493;-27
2022/03/13 00:19:19;;;;;;;13.60;6.50;;;;;;;14.85;33.77;97511.91;5037520;28;20174;-26
2022/03/13 00:21:50;;;;;;;8.45;6.13;;;;;;;14.87;33.77;97512.25;5036196;28;20116;-26
2022/03/13 00:24:20;;;;;;;11.30;6.57;;;;;;;14.80;33.92;97512.44;5036384;28;20021;-26
2022/03/13 00:26:49;;;;;;;9.60;5.57;;;;;;;14.80;33.61;97512.44;5036282;28;20021;-26
2022/03/13 00:29:15;;;;;;;11.13;5.90;;;;;;;14.85;33.77;97511.91;5039348;28;20022;-27
2022/03/13 00:31:40;;;;;;;9.35;6.00;;;;;;;14.84;33.62;97513.09;5036225;28;20029;-26
2022/03/13 00:34:07;;;;;;;9.77;6.15;;;;;;;14.70;34.04;97506.81;5036279;28;20025;-26
2022/03/13 00:36:34;;;;;;;8.55;6.15;;;;;;;14.82;33.52;97504.59;5036117;28;20100;-28
2022/03/13 00:38:59;;;;;;;9.65;6.20;;;;;;;14.70;33.85;97504.09;5036196;28;20040;-26
2022/03/13 00:41:25;;;;;;;8.07;5.22;;;;;;;14.83;33.54;97506.13;5035934;28;20029;-27
2022/03/13 00:43:51;;;;;;;7.68;5.72;;;;;;;14.86;33.33;97510.72;5039231;28;20061;-26
2022/03/13 00:46:16;;;;;;;7.55;5.32;;;;;;;14.85;33.52;97503.72;5050673;28;20033;-26
2022/03/13 00:48:42;;;;;;;7.38;5.47;;;;;;;14.82;33.64;97496.41;5055870;28;20029;-26
2022/03/13 00:51:08;;;;;;;6.70;4.93;;;;;;;14.79;33.65;97502.72;5055737;28;20112;-27
2022/03/13 00:53:34;;;;;;;9.15;5.35;;;;;;;14.89;33.40;97493.47;5055541;28;20469;-27
2022/03/13 00:55:59;;;;;;;8.73;5.18;;;;;;;14.84;33.26;97496.72;5054195;28;20032;-27
2022/03/13 00:58:25;;;;;;;8.23;5.38;;;;;;;14.87;33.27;97495.88;5038340;28;20549;-26
2022/03/13 01:00:51;;;;;;;8.82;5.50;;;;;;;14.83;33.42;97490.53;5035674;28;20021;-26
2022/03/13 01:03:34;;;;;;;7.88;5.30;;;;;;;14.78;33.38;97493.75;5036282;28;20105;-27
2022/03/13 01:06:00;;;;;;;8.18;4.68;;;;;;;14.77;33.60;97492.22;5054257;28;20045;-26
2022/03/13 01:08:26;;;;;;;7.18;4.82;;;;;;;14.78;33.36;97487.53;5054983;28;20116;-27
2022/03/13 01:10:53;;;;;;;8.98;5.00;;;;;;;14.73;33.65;97492.28;5055278;28;20052;-26
2022/03/13 01:13:20;;;;;;;5.93;4.32;;;;;;;14.79;33.30;97487.09;5055329;28;20025;-26
2022/03/13 01:15:48;;;;;;;6.45;4.45;;;;;;;14.77;33.32;97486.75;5037495;28;20029;-26
2022/03/13 01:18:14;;;;;;;9.65;4.47;;;;;;;14.84;33.11;97483.06;5035290;28;20056;-26
2022/03/13 01:20:39;;;;;;;6.43;4.30;;;;;;;14.82;32.98;97483.53;5035134;28;20053;-26
2022/03/13 01:23:07;;;;;;;7.30;4.43;;;;;;;14.74;33.44;97488.38;5038869;28;20079;-26
2022/03/13 01:25:33;;;;;;;6.82;4.65;;;;;;;14.84;33.02;97480.34;5035078;28;20025;-26
2022/03/13 01:27:59;;;;;;;6.93;4.57;;;;;;;14.81;33.21;97478.47;5035300;28;20459;-27
2022/03/13 01:30:24;;;;;;;6.72;4.55;;;;;;;14.78;33.24;97480.09;5035298;28;20029;-27
2022/03/13 01:32:54;;;;;;;6.90;4.20;;;;;;;14.78;33.08;97479.34;5049921;28;20025;-27
2022/03/13 01:35:21;;;;;;;7.35;4.18;;;;;;;14.76;32.86;97473.53;5054981;28;20029;-26
2022/03/13 01:37:47;;;;;;;5.57;4.22;;;;;;;14.78;32.63;97465.69;5054812;28;20051;-27
2022/03/13 01:40:24;;;;;;;9.27;4.65;;;;;;;14.74;32.93;97477.44;5054837;28;20504;-26
2022/03/13 01:42:51;;;;;;;7.30;4.20;;;;;;;14.73;32.78;97466.94;5054410;28;20029;-27
2022/03/13 01:45:19;;;;;;;7.03;4.72;;;;;;;14.78;32.79;97471.91;5054545;28;20033;-27
2022/03/13 01:47:46;;;;;;;6.75;4.40;;;;;;;14.71;33.08;97472.09;5054838;28;20028;-26
2022/03/13 01:50:13;;;;;;;7.00;4.28;;;;;;;14.78;32.91;97471.91;5054708;28;20029;-27
2022/03/13 01:52:40;;;;;;;6.57;4.63;;;;;;;14.68;32.82;97462.78;5052889;28;20048;-26
2022/03/13 01:55:07;;;;;;;8.05;4.82;;;;;;;14.68;32.88;97462.78;5054806;28;20465;-26
2022/03/13 01:57:32;;;;;;;6.30;3.97;;;;;;;14.68;32.92;97467.47;5054389;28;20029;-26
2022/03/13 01:59:59;;;;;;;8.07;4.75;;;;;;;14.72;32.93;97458.00;5054320;28;20483;-26
2022/03/13 02:02:29;;;;;;;6.65;4.63;;;;;;;14.67;33.01;97455.78;5044033;28;20044;-27
2022/03/13 02:04:56;;;;;;;6.07;4.20;;;;;;;14.73;32.96;97456.78;5034134;28;20076;-26
2022/03/13 02:07:24;;;;;;;7.40;4.13;;;;;;;14.57;32.91;97450.59;5034431;28;20510;-26
2022/03/13 02:09:50;;;;;;;7.90;4.32;;;;;;;14.66;32.56;97454.25;5034423;28;20033;-26
2022/03/13 02:12:19;;;;;;;6.90;4.15;;;;;;;14.64;32.43;97456.66;5042503;28;20039;-27
2022/03/13 02:14:45;;;;;;;6.20;4.00;;;;;;;14.65;32.28;97449.22;5054374;28;20028;-28
2022/03/13 02:17:11;;;;;;;7.22;4.38;;;;;;;14.63;32.17;97444.19;5054127;28;20025;-26
2022/03/13 02:19:37;;;;;;;6.38;4.10;;;;;;;14.62;32.66;97442.66;5054285;28;20091;-26
2022/03/13 02:22:03;;;;;;;8.10;4.13;;;;;;;14.60;32.40;97445.03;5053397;28;20061;-27
2022/03/13 02:24:28;;;;;;;6.28;4.13;;;;;;;14.58;32.33;97452.91;5054004;28;20024;-26
2022/03/13 02:27:00;;;;;;;6.50;4.55;;;;;;;14.63;32.15;97444.19;5053077;28;20473;-26
2022/03/13 02:29:26;;;;;;;5.80;4.18;;;;;;;14.62;32.51;97450.84;5053785;28;20462;-26
2022/03/13 02:31:52;;;;;;;8.55;3.95;;;;;;;14.60;32.43;97445.03;5045917;28;20040;-26
2022/03/13 02:34:19;;;;;;;8.05;4.18;;;;;;;14.54;32.45;97446.75;5033889;28;20025;-26
2022/03/13 02:36:49;;;;;;;5.03;3.95;;;;;;;14.61;32.23;97443.84;5037273;28;20102;-26
2022/03/13 02:39:15;;;;;;;7.82;4.75;;;;;;;14.59;32.37;97446.22;5033987;28;20033;-28
2022/03/13 02:41:41;;;;;;;7.20;4.22;;;;;;;14.54;32.26;97441.31;5034036;28;20534;-27
2022/03/13 02:44:09;;;;;;;6.20;4.32;;;;;;;14.54;32.43;97435.06;5033747;28;20044;-26
2022/03/13 02:46:50;;;;;;;7.03;4.32;;;;;;;14.48;32.22;97442.22;5038023;28;20021;-26
2022/03/13 02:49:18;;;;;;;5.82;3.92;;;;;;;14.48;32.20;97437.53;5041242;28;20470;-26
2022/03/13 02:51:44;;;;;;;7.32;4.30;;;;;;;14.56;32.37;97432.69;5033522;28;20466;-27
2022/03/13 02:54:10;;;;;;;6.53;4.32;;;;;;;14.54;32.06;97429.63;5033580;28;20091;-27
2022/03/13 02:56:36;;;;;;;6.45;4.03;;;;;;;14.50;32.20;97435.16;5034886;28;20478;-28
2022/03/13 02:59:02;;;;;;;7.70;4.57;;;;;;;14.45;32.18;97435.69;5033370;28;20033;-26
2022/03/13 03:01:27;;;;;;;8.32;4.57;;;;;;;14.44;32.36;97431.41;5033603;28;20471;-27
2022/03/13 03:03:57;;;;;;;7.80;4.43;;;;;;;14.58;32.10;97428.34;5033602;28;20028;-27
2022/03/13 03:06:25;;;;;;;8.13;4.25;;;;;;;14.44;32.05;97430.66;5033634;28;20497;-26
2022/03/13 03:08:53;;;;;;;7.90;4.35;;;;;;;14.41;32.61;97428.75;5038195;28;20021;-27
2022/03/13 03:11:19;;;;;;;7.47;4.80;;;;;;;14.45;32.37;97430.22;5033651;28;20032;-26
2022/03/13 03:13:44;;;;;;;7.65;4.88;;;;;;;14.43;31.90;97432.59;5033167;28;20112;-27
2022/03/13 03:16:10;;;;;;;6.75;4.90;;;;;;;14.46;32.21;97428.25;5033280;28;20024;-26
2022/03/13 03:18:35;;;;;;;8.85;4.80;;;;;;;14.40;32.30;97425.28;5034352;28;20079;-27
2022/03/13 03:21:01;;;;;;;7.80;5.65;;;;;;;14.47;32.27;97429.78;5033171;28;20079;-26
2022/03/13 03:23:26;;;;;;;5.80;4.60;;;;;;;14.44;31.97;97430.66;5047295;28;20021;-27
2022/03/13 03:25:52;;;;;;;7.80;4.85;;;;;;;14.43;32.05;97432.59;5053034;28;20099;-26
2022/03/13 03:28:18;;;;;;;8.02;4.55;;;;;;;14.38;32.14;97435.81;5052797;28;20021;-26
2022/03/13 03:30:44;;;;;;;7.15;4.30;;;;;;;14.42;31.76;97433.03;5052727;28;20397;-26
2022/03/13 03:33:09;;;;;;;6.05;4.00;;;;;;;14.47;31.64;97427.81;5052944;28;20013;-27
2022/03/13 03:35:35;;;;;;;6.93;4.50;;;;;;;14.44;31.74;97428.69;5053096;28;20025;-26
2022/03/13 03:38:01;;;;;;;6.80;4.57;;;;;;;14.51;31.34;97433.19;5053536;28;20054;-26
2022/03/13 03:40:30;;;;;;;6.32;4.35;;;;;;;14.48;31.67;97429.34;5056587;28;20104;-26
2022/03/13 03:43:00;;;;;;;7.28;4.07;;;;;;;14.54;31.39;97430.38;5056851;28;20025;-27
2022/03/13 03:45:26;;;;;;;4.60;3.47;;;;;;;14.49;31.35;97428.16;5056908;28;20031;-26
2022/03/13 03:47:51;;;;;;;5.10;3.50;;;;;;;14.45;31.34;97426.72;5056922;28;20469;-27
2022/03/13 03:50:18;;;;;;;7.13;3.97;;;;;;;14.50;31.13;97428.91;5055359;28;20033;-26
2022/03/13 03:52:45;;;;;;;5.10;3.70;;;;;;;14.53;31.06;97422.63;5055595;28;20492;-27
2022/03/13 03:55:11;;;;;;;4.80;3.15;;;;;;;14.54;30.88;97427.66;5057130;28;20032;-27
2022/03/13 03:57:36;;;;;;;4.95;3.40;;;;;;;14.52;30.83;97434.72;5056663;28;20393;-26
2022/03/13 04:00:05;;;;;;;4.32;3.10;;;;;;;14.46;30.89;97428.25;5055663;28;20343;-27
2022/03/13 04:02:32;;;;;;;4.75;3.15;;;;;;;14.46;30.82;97425.53;5056261;28;20087;-27
2022/03/13 04:04:57;;;;;;;4.40;3.13;;;;;;;14.57;30.50;97421.34;5056542;28;20052;-27
2022/03/13 04:07:23;;;;;;;4.50;3.00;;;;;;;14.49;30.46;97428.16;5056412;28;20025;-27
2022/03/13 04:09:49;;;;;;;4.60;3.28;;;;;;;14.50;30.46;97432.41;5045609;28;20041;-27
2022/03/13 04:12:15;;;;;;;4.85;3.05;;;;;;;14.48;30.47;97423.88;5035384;28;20017;-27
2022/03/13 04:14:40;;;;;;;4.68;3.00;;;;;;;14.45;30.68;97426.72;5035384;28;20358;-26
2022/03/13 04:17:06;;;;;;;5.72;3.47;;;;;;;14.34;30.44;97426.97;5036425;28;20467;-26
2022/03/13 04:19:32;;;;;;;5.65;3.35;;;;;;;14.35;30.47;97423.00;5036828;28;20109;-26
2022/03/13 04:21:58;;;;;;;4.03;3.10;;;;;;;14.45;30.29;97422.03;5049824;28;20440;-26
2022/03/13 04:24:24;;;;;;;6.50;3.67;;;;;;;14.51;30.45;97414.84;5056192;28;20075;-26
2022/03/13 04:26:50;;;;;;;4.32;2.97;;;;;;;14.48;30.22;97414.94;5056245;28;20028;-28
2022/03/13 04:29:18;;;;;;;4.28;3.20;;;;;;;14.39;30.57;97420.97;5055828;28;20111;-27
2022/03/13 04:31:44;;;;;;;4.68;3.67;;;;;;;14.42;30.50;97420.16;5054699;28;20025;-27
2022/03/13 04:34:10;;;;;;;3.72;2.92;;;;;;;14.49;30.01;97425.44;5056016;28;20029;-27
2022/03/13 04:36:37;;;;;;;5.40;3.53;;;;;;;14.46;30.36;97429.03;5054817;28;20021;-26
2022/03/13 04:39:07;;;;;;;6.07;3.22;;;;;;;14.46;30.27;97434.50;5055895;28;20071;-26
2022/03/13 04:41:32;;;;;;;4.60;3.05;;;;;;;14.47;30.04;97435.22;5049122;28;20091;-26
2022/03/13 04:43:58;;;;;;;5.13;3.33;;;;;;;14.50;30.00;97434.38;5036127;28;20104;-27
2022/03/13 04:46:25;;;;;;;5.43;3.28;;;;;;;14.49;30.34;97436.34;5035940;28;20410;-26
2022/03/13 04:48:50;;;;;;;6.03;3.05;;;;;;;14.40;30.02;97438.91;5036276;28;20025;-27
2022/03/13 04:51:16;;;;;;;4.45;3.17;;;;;;;14.33;30.41;97445.28;5038829;28;20040;-26
2022/03/13 04:53:42;;;;;;;4.60;3.20;;;;;;;14.38;29.98;97444.00;5055829;28;20033;-27
2022/03/13 04:56:08;;;;;;;4.57;3.40;;;;;;;14.46;30.32;97444.63;5052461;28;20026;-26
2022/03/13 04:58:33;;;;;;;5.32;3.22;;;;;;;14.47;29.85;97443.41;5035808;28;20018;-26
2022/03/13 05:00:59;;;;;;;6.93;3.22;;;;;;;14.38;30.06;97447.50;5036993;28;20021;-26
2022/03/13 05:03:26;;;;;;;5.47;3.35;;;;;;;14.37;30.29;97443.22;5055498;28;20024;-26
2022/03/13 05:05:53;;;;;;;5.78;3.08;;;;;;;14.40;30.21;97447.09;5053926;28;20127;-26
2022/03/13 05:08:18;;;;;;;5.90;3.00;;;;;;;14.41;29.96;97451.38;5055172;28;20036;-26
2022/03/13 05:10:46;;;;;;;6.03;3.38;;;;;;;14.38;30.08;97449.47;5055699;28;20025;-26
2022/03/13 05:13:14;;;;;;;5.18;3.55;;;;;;;14.33;30.18;97458.94;5055315;28;20021;-27
2022/03/13 05:15:44;;;;;;;4.95;3.30;;;;;;;14.34;30.44;97459.72;5054408;28;20362;-27
2022/03/13 05:18:10;;;;;;;5.60;3.30;;;;;;;14.39;30.04;97453.72;5055041;28;20033;-27
2022/03/13 05:20:36;;;;;;;6.80;3.58;;;;;;;14.38;29.91;97457.63;5055170;28;20032;-26
2022/03/13 05:23:06;;;;;;;6.10;3.17;;;;;;;14.34;29.98;97460.44;5055081;28;20021;-27
2022/03/13 05:25:35;;;;;;;3.55;2.90;;;;;;;14.36;29.97;97466.25;5054014;28;20110;-27
2022/03/13 05:28:02;;;;;;;7.22;3.78;;;;;;;14.40;30.06;97458.03;5052344;28;21977;-26
2022/03/13 05:30:29;;;;;;;5.35;3.63;;;;;;;14.37;30.17;97467.03;5035119;28;20037;-26
2022/03/13 05:32:58;;;;;;;6.25;3.53;;;;;;;14.37;30.16;97467.03;5034091;28;20027;-27
2022/03/13 05:35:24;;;;;;;5.55;3.72;;;;;;;14.33;30.15;97469.09;5035340;28;20381;-26
2022/03/13 05:37:50;;;;;;;7.93;3.85;;;;;;;14.38;30.15;97465.81;5035143;28;20104;-26
2022/03/13 05:40:17;;;;;;;6.00;3.92;;;;;;;14.36;29.96;97463.53;5035116;28;20032;-27
2022/03/13 05:42:45;;;;;;;6.70;4.28;;;;;;;14.36;29.89;97479.91;5034788;28;20029;-26
2022/03/13 05:45:15;;;;;;;8.20;4.88;;;;;;;14.39;30.36;97475.56;5035116;28;20036;-27
2022/03/13 05:47:48;;;;;;;5.90;4.13;;;;;;;14.38;29.90;97482.19;5046283;28;20021;-28
2022/03/13 05:50:15;;;;;;;7.05;4.38;;;;;;;14.32;29.82;97483.91;5054757;28;20423;-27
2022/03/13 05:52:44;;;;;;;8.10;4.90;;;;;;;14.32;30.13;97484.69;5054580;28;20166;-26
2022/03/13 05:55:10;;;;;;;6.05;4.00;;;;;;;14.31;29.77;97479.66;5043176;28;20025;-27
2022/03/13 05:57:36;;;;;;;6.55;4.50;;;;;;;14.31;29.94;97483.16;5034628;28;20041;-26
2022/03/13 06:00:07;;;;;;;8.95;5.15;;;;;;;14.26;30.14;97488.34;5034877;28;20025;-27
2022/03/13 06:02:33;;;;;;;7.93;5.50;;;;;;;14.29;30.29;97492.94;5039819;28;20496;-26
2022/03/13 06:04:58;;;;;;;9.15;6.63;;;;;;;14.29;29.94;97493.72;5054163;28;20057;-26
2022/03/13 06:07:24;;;;;;;9.48;6.88;;;;;;;14.34;29.99;97492.44;5054315;28;20033;-26
2022/03/13 06:09:52;;;;;;;7.68;5.93;;;;;;;14.27;30.37;97496.09;5054250;28;20027;-26
2022/03/13 06:12:17;;;;;;;8.93;6.47;;;;;;;14.19;30.15;97502.91;5051248;28;20484;-28
2022/03/13 06:14:43;;;;;;;7.88;5.82;;;;;;;14.24;30.16;97509.81;5054315;28;20035;-26
2022/03/13 06:17:09;;;;;;;11.57;5.85;;;;;;;14.27;30.03;97508.97;5054168;28;20016;-27
2022/03/13 06:19:39;;;;;;;11.00;7.75;;;;;;;14.32;29.99;97516.66;5040723;28;20106;-26
2022/03/13 06:22:05;;;;;;;17.23;9.70;;;;;;;14.26;29.97;97512.88;5034045;28;20033;-26
2022/03/13 06:24:32;;;;;;;15.18;9.32;;;;;;;14.31;29.95;97506.94;5034011;28;20029;-27
2022/03/13 06:26:58;;;;;;;11.95;8.27;;;;;;;14.27;30.53;97508.97;5034101;28;20071;-26
2022/03/13 06:29:23;;;;;;;11.60;8.13;;;;;;;14.31;30.26;97510.44;5050463;28;20427;-27
2022/03/13 06:31:50;;;;;;;12.70;8.07;;;;;;;14.32;30.00;97519.41;5054027;28;20032;-27
2022/03/13 06:34:16;;;;;;;11.38;7.22;;;;;;;14.31;29.93;97526.03;5052873;28;20021;-27
2022/03/13 06:36:43;;;;;;;11.77;6.95;;;;;;;14.27;30.25;97528.06;5037464;28;20096;-27
2022/03/13 06:39:08;;;;;;;8.85;6.55;;;;;;;14.33;30.00;97523.66;5033793;28;20029;-26
2022/03/13 06:41:34;;;;;;;10.98;6.55;;;;;;;14.30;30.34;97524.50;5033765;28;20036;-26
2022/03/13 06:44:00;;;;;;;8.77;6.05;;;;;;;14.42;29.79;97529.31;5033825;28;20037;-27
2022/03/13 06:46:25;;;;;;;7.22;5.45;;;;;;;14.28;30.09;97532.34;5034844;28;20021;-26
2022/03/13 06:48:51;;;;;;;8.32;5.38;;;;;;;14.25;30.41;97531.22;5033851;28;20533;-26
2022/03/13 06:51:17;;;;;;;7.22;5.35;;;;;;;14.28;30.26;97532.34;5033550;28;20024;-26
2022/03/13 06:53:42;;;;;;;10.55;5.70;;;;;;;14.31;30.64;97534.22;5033530;28;20035;-27
2022/03/13 06:56:08;;;;;;;6.78;5.05;;;;;;;14.25;30.37;97544.09;5034937;28;20025;-26
2022/03/13 06:58:34;;;;;;;7.40;4.80;;;;;;;14.32;30.49;97543.94;5033734;28;20029;-28
2022/03/13 07:00:59;;;;;;;6.60;4.68;;;;;;;14.35;30.50;97543.09;5033484;28;20034;-26
2022/03/13 07:03:25;;;;;;;7.88;4.78;;;;;;;14.30;30.67;97541.66;5029413;28;20131;-27
2022/03/13 07:05:51;;;;;;;6.28;4.43;;;;;;;14.20;30.42;97542.66;5031524;28;20115;-27
2022/03/13 07:08:16;;;;;;;5.95;4.15;;;;;;;14.27;30.49;97545.22;5032367;28;20029;-26
2022/03/13 07:10:43;;;;;;;8.55;4.72;;;;;;;14.20;30.69;97542.66;5027198;28;20481;-26
2022/03/13 07:13:09;;;;;;;7.20;4.72;;;;;;;14.24;30.66;97553.47;5050811;28;20055;-27
2022/03/13 07:15:35;;;;;;;6.90;4.30;;;;;;;14.30;30.40;97551.78;5045034;28;20033;-27
2022/03/13 07:18:00;;;;;;;6.45;4.18;;;;;;;14.14;30.47;97551.75;5029879;28;20109;-25
2022/03/13 07:20:26;;;;;;;7.78;4.43;;;;;;;14.17;30.69;97548.19;5032462;28;20470;-26
2022/03/13 07:22:52;;;;;;;5.45;4.10;;;;;;;14.19;30.69;97554.75;5044754;28;20573;-27
2022/03/13 07:25:18;;;;;;;5.78;4.00;;;;;;;14.04;30.89;97558.97;5031219;28;20078;-28
2022/03/13 07:27:44;;;;;;;4.88;3.50;;;;;;;14.03;30.97;97560.91;5031075;28;20517;-27
2022/03/13 07:30:14;;;;;;;6.00;3.72;;;;;;;14.15;30.69;97564.19;5031280;28;20029;-26
2022/03/13 07:32:41;;;;;;;5.93;4.13;;;;;;;14.01;30.78;97565.25;5032211;28;20025;-26
2022/03/13 07:35:08;;;;;;;5.80;3.58;;;;;;;14.14;30.73;97563.41;5031122;28;20468;-28
2022/03/13 07:37:33;;;;;;;5.70;3.95;;;;;;;14.08;30.69;97572.53;5031314;28;20466;-26
2022/03/13 07:39:59;;;;;;;7.72;4.00;;;;;;;14.03;30.85;97563.66;5031068;28;20079;-26
2022/03/13 07:42:25;;;;;;;8.32;4.00;;;;;;;14.12;30.80;97575.94;5032901;28;20033;-28
2022/03/13 07:44:51;;;;;;;5.57;3.58;;;;;;;14.22;30.80;97572.22;5050954;28;20112;-27
2022/03/13 07:47:16;;;;;;;5.72;3.60;;;;;;;14.20;30.88;97575.38;5029372;28;20378;-26
2022/03/13 07:49:42;;;;;;;4.57;3.33;;;;;;;14.19;30.47;97570.34;5028674;28;20021;-27
2022/03/13 07:52:08;;;;;;;6.80;3.67;;;;;;;14.14;30.92;97573.56;5030665;28;20109;-26
2022/03/13 07:54:33;;;;;;;6.35;3.63;;;;;;;14.14;30.93;97566.16;5034408;28;20033;-26
2022/03/13 07:56:59;;;;;;;7.00;4.30;;;;;;;14.13;30.79;97561.13;5030955;28;20112;-26
2022/03/13 07:59:25;;;;;;;7.25;4.07;;;;;;;14.11;30.60;97568.94;5030815;28;20382;-27
2022/03/13 08:01:50;;;;;;;5.57;3.58;;;;;;;14.12;30.74;97562.31;5030468;28;20029;-26
2022/03/13 08:04:16;;;;;;;5.60;3.95;;;;;;;14.17;30.69;97564.53;5031120;28;20080;-26
2022/03/13 08:06:42;;;;;;;6.38;3.85;;;;;;;14.17;30.56;97567.28;5031079;28;20457;-26
2022/03/13 08:09:09;;;;;;;5.60;4.20;;;;;;;14.00;31.13;97564.47;5031052;28;20048;-27
2022/03/13 08:11:36;;;;;;;5.60;3.70;;;;;;;13.93;31.02;97563.88;5031066;28;20136;-26
2022/03/13 08:14:03;;;;;;;5.05;3.85;;;;;;;14.10;30.87;97568.19;5043166;28;20024;-26
2022/03/13 08:16:31;;;;;;;5.97;3.75;;;;;;;14.10;30.67;97559.22;5050699;28;20028;-26
2022/03/13 08:18:59;;;;;;;7.00;4.07;;;;;;;14.09;31.08;97566.66;5050673;28;20021;-26
2022/03/13 08:21:26;;;;;;;4.80;3.35;;;;;;;14.14;31.02;97563.41;5031403;28;20040;-26
2022/03/13 08:23:52;;;;;;;5.40;3.90;;;;;;;14.18;31.06;97566.09;5040381;28;20370;-27
2022/03/13 08:26:17;;;;;;;6.32;3.60;;;;;;;14.00;30.96;97563.72;5036162;28;20036;-27
2022/03/13 08:28:44;;;;;;;4.93;3.60;;;;;;;14.08;31.18;97569.81;5034138;28;20143;-27
2022/03/13 08:31:10;;;;;;;5.90;3.97;;;;;;;14.08;31.18;97567.09;5034126;28;20034;-26
2022/03/13 08:33:36;;;;;;;4.18;3.58;;;;;;;14.04;31.21;97558.97;5042591;28;20030;-29
2022/03/13 08:36:01;;;;;;;6.05;3.75;;;;;;;14.14;30.85;97559.91;5034151;28;20025;-26
2022/03/13 08:38:28;;;;;;;4.25;3.20;;;;;;;14.11;31.05;97560.75;5033942;28;20381;-26
2022/03/13 08:40:54;;;;;;;5.03;3.15;;;;;;;14.12;31.03;97568.53;5034108;28;20025;-26
2022/03/13 08:43:19;;;;;;;6.05;3.72;;;;;;;14.07;30.99;97565.53;5045440;28;20108;-27
2022/03/13 08:45:45;;;;;;;5.13;3.28;;;;;;;13.99;31.58;97565.66;5047362;28;20394;-27
2022/03/13 08:48:13;;;;;;;5.50;3.47;;;;;;;14.01;31.69;97568.75;5033923;28;20431;-26
2022/03/13 08:50:38;;;;;;;6.38;3.50;;;;;;;14.06;31.19;97570.22;5031918;28;20121;-27
2022/03/13 08:53:04;;;;;;;6.63;3.60;;;;;;;14.00;31.53;97578.13;5035833;28;20112;-26
2022/03/13 08:55:30;;;;;;;5.95;4.47;;;;;;;13.86;31.62;97574.91;5034030;28;20029;-26
2022/03/13 08:57:55;;;;;;;5.25;3.97;;;;;;;13.98;31.81;97583.22;5042501;28;20029;-26
2022/03/13 09:00:21;;;;;;;4.40;3.38;;;;;;;13.86;31.67;97572.94;5046017;28;20030;-27
2022/03/13 09:02:47;;;;;;;7.00;4.03;;;;;;;13.99;31.73;97578.53;5033142;28;20025;-27
2022/03/13 09:05:13;;;;;;;5.88;3.95;;;;;;;14.13;31.17;97583.72;5033605;28;20077;-26
2022/03/13 09:07:39;;;;;;;5.43;3.80;;;;;;;14.12;31.29;97579.44;5033419;28;20069;-26
2022/03/13 09:10:07;;;;;;;6.88;3.92;;;;;;;14.13;31.57;97588.38;5034807;28;20041;-27
2022/03/13 09:12:34;;;;;;;6.60;3.80;;;;;;;14.07;31.58;97592.81;5033681;28;20039;-27
2022/03/13 09:15:01;;;;;;;4.57;3.75;;;;;;;14.12;31.52;97595.81;5032939;28;20065;-26
2022/03/13 09:17:27;;;;;;;6.13;4.18;;;;;;;13.83;31.90;97592.91;5043247;28;20037;-27
2022/03/13 09:19:55;;;;;;;9.18;4.25;;;;;;;13.88;31.94;97589.66;5052978;28;20496;-27
2022/03/13 09:22:22;;;;;;;5.13;3.80;;;;;;;13.99;32.07;97587.50;5053354;28;20063;-26
2022/03/13 09:24:49;;;;;;;5.18;3.50;;;;;;;14.14;31.44;97595.38;5039154;28;20021;-27
2022/03/13 09:27:15;;;;;;;5.00;3.60;;;;;;;13.98;31.98;97582.44;5033493;28;20029;-26
2022/03/13 09:29:40;;;;;;;5.47;4.03;;;;;;;13.88;32.16;97580.72;5031691;28;20025;-26
2022/03/13 09:32:07;;;;;;;5.25;4.03;;;;;;;14.01;32.09;97585.13;5035945;28;20026;-28
2022/03/13 09:34:33;;;;;;;4.70;3.58;;;;;;;14.19;31.48;97589.44;5042827;28;20029;-26
2022/03/13 09:36:59;;;;;;;6.57;3.78;;;;;;;14.17;31.54;97578.19;5032254;28;20024;-28
2022/03/13 09:39:29;;;;;;;7.13;3.58;;;;;;;14.15;31.75;97583.28;5030600;28;20401;-26
2022/03/13 09:41:56;;;;;;;5.00;3.60;;;;;;;14.03;32.11;97571.06;5032396;28;20021;-26
2022/03/13 09:44:21;;;;;;;5.22;3.80;;;;;;;14.07;32.23;97581.91;5032309;28;20112;-26
2022/03/13 09:46:47;;;;;;;5.82;3.63;;;;;;;14.12;31.89;97573.22;5033285;28;20108;-26
2022/03/13 09:49:16;;;;;;;5.35;3.95;;;;;;;14.12;32.34;97570.47;5033686;28;20079;-27
2022/03/13 09:51:42;;;;;;;5.72;3.70;;;;;;;13.76;32.65;97576.66;5029402;28;20041;-28
2022/03/13 09:54:08;;;;;;;6.28;3.65;;;;;;;13.94;32.70;97570.88;5032376;28;20056;-27
2022/03/13 09:56:38;;;;;;;6.38;3.80;;;;;;;14.07;32.13;97565.53;5032181;28;20549;-26
2022/03/13 09:59:03;;;;;;;5.38;3.20;;;;;;;13.97;32.74;97557.13;5032243;28;20040;-26
2022/03/13 10:01:29;;;;;;;9.20;4.03;;;;;;;13.69;33.21;97565.13;5033602;28;20025;-28
2022/03/13 10:03:55;;;;;;;6.30;3.50;;;;;;;14.03;32.83;97565.59;5033215;28;20040;-28
2022/03/13 10:06:20;;;;;;;5.25;3.70;;;;;;;13.74;33.17;97564.63;5012623;28;20032;-26
2022/03/13 10:08:46;;;;;;;8.68;3.80;;;;;;;13.99;32.86;97565.66;5013294;28;20037;-26
2022/03/13 10:11:12;;;;;;;6.32;3.67;;;;;;;13.95;33.16;97570.44;5012732;28;20084;-27
2022/03/13 10:13:40;;;;;;;6.32;3.90;;;;;;;13.78;33.31;97573.50;5012726;28;20029;-27
2022/03/13 10:16:14;;;;;;;4.90;3.75;;;;;;;13.83;33.31;97562.91;5012729;28;20034;-26
2022/03/13 10:18:41;;;;;;;4.30;3.20;;;;;;;13.74;33.33;97559.19;5021020;28;20029;-28
2022/03/13 10:21:12;;;;;;;5.88;3.50;;;;;;;13.54;34.23;97556.44;5031785;28;20036;-26
2022/03/13 10:23:39;;;;;;;7.85;5.07;;;;;;;13.12;34.95;97560.66;5032208;28;20037;-26
2022/03/13 10:26:05;;;;;;;7.10;3.92;;;;;;;13.68;33.67;97553.47;5030378;28;20032;-26
2022/03/13 10:28:35;;;;;;;6.80;4.65;;;;;;;13.58;33.97;97554.44;5027390;28;20428;-26
2022/03/13 10:31:01;;;;;;;6.13;3.95;;;;;;;13.92;33.35;97543.25;5034295;28;20028;-27
2022/03/13 10:33:42;;;;;;;7.60;4.32;;;;;;;13.77;33.30;97550.94;5033930;28;20022;-26
2022/03/13 10:36:10;;;;;;;5.90;3.70;;;;;;;13.97;32.95;97545.47;5033626;28;20088;-26
2022/03/13 10:38:37;;;;;;;9.15;5.03;;;;;;;13.68;33.82;97553.47;5033870;28;20029;-27
2022/03/13 10:41:08;;;;;;;6.13;4.20;;;;;;;13.51;34.06;97546.38;5033819;28;20538;-27
2022/03/13 10:43:39;;;;;;;9.07;5.55;;;;;;;13.34;34.38;97555.66;5033837;28;20070;-27
2022/03/13 10:46:05;;;;;;;6.10;4.47;;;;;;;13.82;33.35;97547.72;5032405;28;20025;-26
2022/03/13 10:48:36;;;;;;;6.72;4.18;;;;;;;13.89;33.04;97544.84;5033009;28;20113;-26
2022/03/13 10:51:04;;;;;;;7.75;5.18;;;;;;;13.89;33.12;97544.84;5033761;28;20028;-27
2022/03/13 10:53:30;;;;;;;5.63;3.72;;;;;;;14.16;32.88;97543.91;5033766;28;20049;-26
2022/03/13 10:56:22;;;;;;;8.75;4.57;;;;;;;13.77;33.49;97547.44;5033317;28;20467;-27
2022/03/13 10:58:48;;;;;;;11.15;6.00;;;;;;;13.45;34.17;97534.44;5033365;28;20042;-28
2022/03/13 11:01:19;;;;;;;8.25;4.90;;;;;;;13.59;34.09;97536.91;5033715;28;20369;-26
2022/03/13 11:03:56;;;;;;;6.88;4.45;;;;;;;13.75;33.86;97539.69;5033638;28;20025;-27
2022/03/13 11:06:24;;;;;;;10.20;6.30;;;;;;;13.56;33.81;97533.03;5041657;28;20400;-26
2022/03/13 11:08:55;;;;;;;6.00;4.10;;;;;;;13.79;33.54;97532.19;5052770;28;20086;-26
2022/03/13 11:11:26;;;;;;;8.45;4.88;;;;;;;14.09;33.06;97530.44;5044917;28;20103;-26
2022/03/13 11:13:55;;;;;;;6.80;4.05;;;;;;;14.21;32.76;97529.78;5053216;28;20029;-28
2022/03/13 11:16:32;;;;;;;7.22;5.05;;;;;;;13.58;33.79;97540.81;5051954;28;20021;-27
2022/03/13 11:19:05;;;;;;;12.48;6.00;;;;;;;13.82;33.47;97539.56;5047419;28;20025;-26
2022/03/13 11:21:31;;;;;;;8.85;5.28;;;;;;;14.00;33.20;97537.22;5041845;28;20021;-26
2022/03/13 11:23:57;;;;;;;10.40;5.50;;;;;;;13.83;33.55;97534.88;5053294;28;20089;-26
2022/03/13 11:26:30;;;;;;;7.65;5.45;;;;;;;13.93;33.31;97534.66;5053308;28;20033;-26
2022/03/13 11:28:58;;;;;;;7.93;5.63;;;;;;;13.50;33.93;97533.94;5042582;28;20514;-29
2022/03/13 11:31:33;;;;;;;8.07;5.20;;;;;;;13.90;33.49;97512.91;5033343;28;20163;-27